Time;durP1;ratioP1;P1;durP2;ratioP2;P2;SDS_P1;SDS_P2;PMS_P1;PMS_P2;Temp;Humidity;BMP_temperature;BMP_pressure;BME280_temperature;BME280_humidity;BME280_pressure;Samples;Min_cycle;Max_cycle;Signal;HPM_P1;HPM_P2
2024/03/17 00:02:09;;;;;;;8.88;3.92;;;;;;;;;;5023705;28;20315;-81
2024/03/17 00:04:34;;;;;;;6.78;2.67;;;;;;;;;;5032306;28;20028;-83
2024/03/17 00:07:00;;;;;;;8.43;2.78;;;;;;;;;;5060023;28;20036;-81
2024/03/17 00:09:26;;;;;;;7.28;2.50;;;;;;;;;;5043402;28;20025;-82
2024/03/17 00:11:51;;;;;;;9.88;2.63;;;;;;;;;;5021013;28;20040;-82
2024/03/17 00:14:18;;;;;;;5.28;2.65;;;;;;;;;;5053757;28;20037;-82
2024/03/17 00:16:44;;;;;;;7.15;2.20;;;;;;;;;;5039437;28;20041;-82
2024/03/17 00:19:10;;;;;;;5.95;2.65;;;;;;;;;;5056586;28;20041;-81
2024/03/17 00:21:36;;;;;;;7.53;2.47;;;;;;;;;;5034952;28;20029;-82
2024/03/17 00:24:02;;;;;;;9.23;3.03;;;;;;;;;;5038648;28;20041;-81
2024/03/17 00:26:29;;;;;;;5.28;2.53;;;;;;;;;;5028045;28;20614;-82
2024/03/17 00:28:55;;;;;;;7.85;2.80;;;;;;;;;;5031581;28;20131;-83
2024/03/17 00:31:21;;;;;;;9.07;2.90;;;;;;;;;;5038221;28;20040;-83
2024/03/17 00:33:46;;;;;;;10.00;2.70;;;;;;;;;;5073977;28;20392;-82
2024/03/17 00:36:13;;;;;;;11.65;2.70;;;;;;;;;;5059533;28;20036;-82
2024/03/17 00:38:38;;;;;;;8.77;2.70;;;;;;;;;;5059491;28;20036;-82
2024/03/17 00:41:04;;;;;;;4.90;2.42;;;;;;;;;;5045459;28;20080;-82
2024/03/17 00:43:30;;;;;;;11.27;3.17;;;;;;;;;;5024750;28;20041;-81
2024/03/17 00:45:55;;;;;;;6.80;2.47;;;;;;;;;;5037210;28;20041;-82
2024/03/17 00:48:21;;;;;;;4.95;2.60;;;;;;;;;;5039182;28;20036;-81
2024/03/17 00:50:54;;;;;;;5.88;2.55;;;;;;;;;;5031286;28;20029;-82
2024/03/17 00:53:19;;;;;;;5.75;2.72;;;;;;;;;;5051389;28;20037;-81
2024/03/17 00:55:53;;;;;;;6.10;2.65;;;;;;;;;;5066148;28;20037;-82
2024/03/17 00:58:23;;;;;;;8.45;3.42;;;;;;;;;;5048400;28;20029;-82
2024/03/17 01:00:50;;;;;;;5.72;2.63;;;;;;;;;;5017589;28;20036;-82
2024/03/17 01:03:16;;;;;;;9.77;2.90;;;;;;;;;;5020517;28;20033;-82
2024/03/17 01:05:44;;;;;;;8.23;2.83;;;;;;;;;;5027031;28;20380;-82
2024/03/17 01:08:11;;;;;;;5.15;2.90;;;;;;;;;;5015896;28;20064;-81
2024/03/17 01:10:40;;;;;;;7.53;2.60;;;;;;;;;;5051274;28;20041;-81
2024/03/17 01:13:06;;;;;;;7.35;2.47;;;;;;;;;;5039286;28;20120;-83
2024/03/17 01:15:34;;;;;;;6.57;2.55;;;;;;;;;;5041330;28;20032;-82
2024/03/17 01:18:00;;;;;;;8.27;2.90;;;;;;;;;;5045115;28;20033;-82
2024/03/17 01:20:27;;;;;;;8.32;3.10;;;;;;;;;;5031933;28;20029;-80
2024/03/17 01:22:53;;;;;;;8.27;2.50;;;;;;;;;;5025128;28;20025;-82
2024/03/17 01:25:19;;;;;;;7.15;2.70;;;;;;;;;;5041861;28;20037;-81
2024/03/17 01:27:45;;;;;;;8.27;2.72;;;;;;;;;;5032213;28;20033;-81
2024/03/17 01:30:11;;;;;;;5.40;2.30;;;;;;;;;;5013761;28;20447;-81
2024/03/17 01:32:37;;;;;;;8.48;3.25;;;;;;;;;;5010022;28;20061;-81
2024/03/17 01:35:05;;;;;;;7.60;3.35;;;;;;;;;;5021886;28;20055;-82
2024/03/17 01:37:31;;;;;;;6.45;2.35;;;;;;;;;;5034426;28;20032;-83
2024/03/17 01:40:04;;;;;;;5.85;2.83;;;;;;;;;;5034341;28;20408;-81
2024/03/17 01:42:30;;;;;;;10.63;2.92;;;;;;;;;;5035546;28;20030;-82
2024/03/17 01:44:56;;;;;;;9.35;2.90;;;;;;;;;;5023662;28;20112;-82
2024/03/17 01:47:21;;;;;;;8.45;2.30;;;;;;;;;;5058855;28;20021;-81
2024/03/17 01:49:48;;;;;;;10.95;3.35;;;;;;;;;;5025721;28;20043;-83
2024/03/17 01:52:17;;;;;;;9.20;2.97;;;;;;;;;;5040313;28;20037;-81
2024/03/17 01:54:42;;;;;;;;;;;;;;;;;;5060863;28;20033;-79
2024/03/17 01:57:08;;;;;;;6.53;2.47;;;;;;;;;;5057887;28;19913;-81
2024/03/17 01:59:34;;;;;;;9.30;2.78;;;;;;;;;;5023746;28;20041;-81
2024/03/17 02:02:00;;;;;;;6.38;2.42;;;;;;;;;;5015397;28;20030;-83
2024/03/17 02:04:26;;;;;;;7.00;2.40;;;;;;;;;;5027326;28;20051;-81
2024/03/17 02:06:56;;;;;;;6.05;2.30;;;;;;;;;;5028488;28;20029;-81
2024/03/17 02:09:23;;;;;;;6.47;2.72;;;;;;;;;;5027025;28;20041;-82
2024/03/17 02:11:48;;;;;;;7.10;2.63;;;;;;;;;;5043580;28;20082;-82
2024/03/17 02:14:17;;;;;;;8.65;2.63;;;;;;;;;;5045243;28;20041;-82
2024/03/17 02:16:44;;;;;;;7.40;2.65;;;;;;;;;;5063417;28;20089;-83
2024/03/17 02:19:10;;;;;;;6.45;2.20;;;;;;;;;;5012935;28;20037;-83
2024/03/17 02:21:37;;;;;;;6.78;2.55;;;;;;;;;;5028660;28;20086;-82
2024/03/17 02:24:03;;;;;;;7.03;2.80;;;;;;;;;;5027244;28;20112;-81
2024/03/17 02:26:30;;;;;;;8.85;2.60;;;;;;;;;;5074141;28;20029;-80
2024/03/17 02:28:55;;;;;;;4.40;1.90;;;;;;;;;;5038173;28;20105;-82
2024/03/17 02:31:22;;;;;;;5.88;2.00;;;;;;;;;;5039584;28;20037;-82
2024/03/17 02:33:48;;;;;;;6.90;2.50;;;;;;;;;;5030000;28;20041;-83
2024/03/17 02:36:13;;;;;;;6.30;2.30;;;;;;;;;;5039437;28;20034;-82
2024/03/17 02:41:23;;;;;;;15.13;2.33;;;;;;;;;;5049282;28;20037;-82
2024/03/17 02:43:50;;;;;;;4.50;2.22;;;;;;;;;;5034695;28;20029;-82
2024/03/17 02:46:18;;;;;;;11.52;2.90;;;;;;;;;;5019419;28;20081;-81
2024/03/17 02:48:46;;;;;;;5.93;2.40;;;;;;;;;;5022004;28;20064;-81
2024/03/17 02:51:14;;;;;;;6.63;2.10;;;;;;;;;;5046904;28;20061;-81
2024/03/17 02:53:44;;;;;;;5.80;2.10;;;;;;;;;;5048595;28;20087;-82
2024/03/17 02:56:10;;;;;;;8.65;2.22;;;;;;;;;;5022549;28;20082;-81
2024/03/17 02:58:38;;;;;;;6.78;1.98;;;;;;;;;;5046632;28;20104;-82
2024/03/17 03:01:05;;;;;;;9.82;2.38;;;;;;;;;;5027254;28;20049;-83
2024/03/17 03:03:31;;;;;;;7.45;2.70;;;;;;;;;;5042752;28;20049;-82
2024/03/17 03:05:58;;;;;;;10.40;2.55;;;;;;;;;;5048849;28;20036;-82
2024/03/17 03:08:24;;;;;;;10.45;2.40;;;;;;;;;;5036220;28;20034;-82
2024/03/17 03:10:52;;;;;;;4.40;2.00;;;;;;;;;;5035527;28;20041;-81
2024/03/17 03:13:19;;;;;;;7.60;2.85;;;;;;;;;;5024272;28;20037;-83
2024/03/17 03:15:46;;;;;;;5.18;2.03;;;;;;;;;;5062639;28;20028;-83
2024/03/17 03:18:11;;;;;;;6.95;2.15;;;;;;;;;;5041457;28;20480;-83
2024/03/17 03:20:37;;;;;;;6.45;2.80;;;;;;;;;;5061304;28;20036;-81
2024/03/17 03:23:02;;;;;;;10.60;2.65;;;;;;;;;;5042081;28;20077;-83
2024/03/17 03:25:28;;;;;;;6.00;2.25;;;;;;;;;;5058626;28;20124;-82
2024/03/17 03:27:57;;;;;;;7.85;2.05;;;;;;;;;;5072078;28;20067;-81
2024/03/17 03:30:23;;;;;;;11.55;2.30;;;;;;;;;;5072237;28;20108;-82
2024/03/17 03:32:49;;;;;;;5.25;2.22;;;;;;;;;;5023054;28;20044;-81
2024/03/17 03:35:19;;;;;;;4.15;1.90;;;;;;;;;;5049636;28;20044;-81
2024/03/17 03:37:46;;;;;;;4.32;2.10;;;;;;;;;;5068619;28;20047;-81
2024/03/17 03:40:16;;;;;;;7.53;3.30;;;;;;;;;;5056864;28;20025;-82
2024/03/17 03:42:45;;;;;;;6.65;2.30;;;;;;;;;;5042392;28;20032;-81
2024/03/17 03:45:13;;;;;;;9.70;2.67;;;;;;;;;;5049619;28;20041;-81
2024/03/17 03:47:42;;;;;;;7.10;2.30;;;;;;;;;;5038871;28;20060;-82
2024/03/17 03:50:10;;;;;;;9.18;2.58;;;;;;;;;;5042118;28;20036;-83
2024/03/17 03:52:36;;;;;;;5.03;2.42;;;;;;;;;;5058456;28;20029;-82
2024/03/17 03:55:04;;;;;;;8.23;2.35;;;;;;;;;;5040603;28;20058;-83
2024/03/17 03:57:30;;;;;;;8.50;2.40;;;;;;;;;;5040660;28;20037;-82
2024/03/17 03:59:57;;;;;;;4.50;1.88;;;;;;;;;;5037638;28;20040;-81
2024/03/17 04:02:23;;;;;;;7.32;2.90;;;;;;;;;;5031785;28;20069;-82
2024/03/17 04:04:48;;;;;;;4.78;2.35;;;;;;;;;;5034039;28;20051;-83
2024/03/17 04:07:14;;;;;;;8.60;2.40;;;;;;;;;;5051476;28;20039;-82
2024/03/17 04:09:39;;;;;;;14.43;3.00;;;;;;;;;;5066075;28;20029;-80
2024/03/17 04:12:05;;;;;;;9.07;2.92;;;;;;;;;;5053570;28;20045;-82
2024/03/17 04:14:31;;;;;;;5.85;2.50;;;;;;;;;;5038149;28;20032;-83
2024/03/17 04:16:58;;;;;;;6.68;2.75;;;;;;;;;;5054219;28;20041;-81
2024/03/17 04:19:23;;;;;;;4.55;2.03;;;;;;;;;;5056530;28;20025;-82
2024/03/17 04:21:54;;;;;;;9.88;2.60;;;;;;;;;;5042086;28;20092;-81
2024/03/17 04:24:19;;;;;;;6.70;2.50;;;;;;;;;;5033996;28;20079;-82
2024/03/17 04:26:45;;;;;;;8.10;2.63;;;;;;;;;;5057071;28;20041;-83
2024/03/17 04:29:12;;;;;;;5.28;2.50;;;;;;;;;;5041211;28;20048;-82
2024/03/17 04:31:37;;;;;;;5.78;2.17;;;;;;;;;;5052021;28;20548;-81
2024/03/17 04:34:08;;;;;;;9.63;2.50;;;;;;;;;;5045690;28;20029;-81
2024/03/17 04:36:37;;;;;;;6.40;2.65;;;;;;;;;;5027870;28;20053;-81
2024/03/17 04:39:04;;;;;;;6.03;2.20;;;;;;;;;;5023335;28;20033;-81
2024/03/17 04:41:29;;;;;;;5.97;2.30;;;;;;;;;;5042869;28;20056;-81
2024/03/17 04:43:55;;;;;;;6.72;2.60;;;;;;;;;;5044966;28;20037;-81
2024/03/17 04:46:22;;;;;;;6.00;2.67;;;;;;;;;;5031811;28;20049;-82
2024/03/17 04:48:51;;;;;;;3.75;1.95;;;;;;;;;;5068617;28;20018;-82
2024/03/17 04:51:17;;;;;;;5.65;2.30;;;;;;;;;;5039172;28;20032;-83
2024/03/17 04:53:43;;;;;;;4.65;2.08;;;;;;;;;;5026433;28;20054;-82
2024/03/17 04:56:08;;;;;;;5.22;2.40;;;;;;;;;;5043154;28;20041;-83
2024/03/17 04:58:34;;;;;;;5.97;2.17;;;;;;;;;;5036947;28;20036;-81
2024/03/17 05:01:06;;;;;;;6.88;2.50;;;;;;;;;;5040452;28;20025;-82
2024/03/17 05:03:32;;;;;;;6.95;2.70;;;;;;;;;;5040658;28;20068;-81
2024/03/17 05:06:00;;;;;;;10.95;2.30;;;;;;;;;;5023884;28;20095;-81
2024/03/17 05:08:26;;;;;;;7.53;3.65;;;;;;;;;;5019192;28;20105;-80
2024/03/17 05:10:58;;;;;;;8.02;2.15;;;;;;;;;;5038636;28;20064;-81
2024/03/17 05:13:26;;;;;;;7.38;2.40;;;;;;;;;;5046074;28;20435;-81
2024/03/17 05:15:52;;;;;;;6.97;2.42;;;;;;;;;;5042054;28;20087;-82
2024/03/17 05:18:18;;;;;;;9.38;2.97;;;;;;;;;;5021311;28;20033;-81
2024/03/17 05:20:43;;;;;;;8.57;2.53;;;;;;;;;;5015757;28;20120;-82
2024/03/17 05:23:10;;;;;;;7.82;2.50;;;;;;;;;;5043719;28;20025;-82
2024/03/17 05:25:37;;;;;;;10.02;2.65;;;;;;;;;;5027845;28;20060;-82
2024/03/17 05:28:02;;;;;;;6.80;2.72;;;;;;;;;;5043667;28;20472;-82
2024/03/17 05:30:29;;;;;;;9.18;2.38;;;;;;;;;;5016227;28;20037;-82
2024/03/17 05:32:54;;;;;;;4.38;2.38;;;;;;;;;;5027175;28;20550;-81
2024/03/17 05:35:21;;;;;;;7.93;2.67;;;;;;;;;;5004114;28;20049;-82
2024/03/17 05:37:52;;;;;;;7.10;3.08;;;;;;;;;;5034887;28;20033;-81
2024/03/17 05:40:19;;;;;;;6.22;2.92;;;;;;;;;;5030259;28;20037;-82
2024/03/17 05:42:45;;;;;;;9.05;2.72;;;;;;;;;;5043024;28;20033;-81
2024/03/17 05:45:13;;;;;;;7.93;2.45;;;;;;;;;;5036941;28;20052;-82
2024/03/17 05:47:41;;;;;;;7.13;2.33;;;;;;;;;;5039770;28;20025;-82
2024/03/17 05:50:06;;;;;;;9.18;2.30;;;;;;;;;;5029190;28;20032;-81
2024/03/17 05:52:32;;;;;;;6.15;3.00;;;;;;;;;;5017356;28;20104;-82
2024/03/17 05:54:58;;;;;;;6.78;2.53;;;;;;;;;;5043950;28;20037;-82
2024/03/17 05:57:24;;;;;;;7.82;2.50;;;;;;;;;;5024996;28;20041;-81
2024/03/17 05:59:49;;;;;;;4.53;2.17;;;;;;;;;;5019197;28;20032;-83
2024/03/17 06:02:15;;;;;;;6.70;2.33;;;;;;;;;;5040559;28;20029;-82
2024/03/17 06:04:41;;;;;;;7.63;2.63;;;;;;;;;;5057996;28;20041;-81
2024/03/17 06:07:07;;;;;;;6.93;2.70;;;;;;;;;;5025906;28;20033;-82
2024/03/17 06:09:33;;;;;;;8.00;3.00;;;;;;;;;;5059801;28;20060;-81
2024/03/17 06:11:59;;;;;;;7.40;2.20;;;;;;;;;;5054248;28;20037;-83
2024/03/17 06:14:24;;;;;;;9.82;2.88;;;;;;;;;;5031117;28;20135;-81
2024/03/17 06:16:50;;;;;;;9.23;2.83;;;;;;;;;;5056669;28;20029;-82
2024/03/17 06:19:16;;;;;;;10.85;2.85;;;;;;;;;;5060951;28;20013;-81
2024/03/17 06:21:41;;;;;;;7.57;2.92;;;;;;;;;;5051764;28;20017;-81
2024/03/17 06:24:07;;;;;;;9.32;2.80;;;;;;;;;;5045747;28;20081;-82
2024/03/17 06:26:34;;;;;;;5.65;2.50;;;;;;;;;;5059296;28;20053;-82
2024/03/17 06:29:02;;;;;;;8.80;2.92;;;;;;;;;;5044351;28;20017;-82
2024/03/17 06:31:31;;;;;;;10.05;3.33;;;;;;;;;;5060724;28;20032;-81
2024/03/17 06:33:56;;;;;;;17.45;3.30;;;;;;;;;;5052919;28;20068;-82
2024/03/17 06:36:23;;;;;;;5.05;2.78;;;;;;;;;;5061688;28;20020;-81
2024/03/17 06:38:49;;;;;;;6.10;2.35;;;;;;;;;;5061815;28;20017;-81
2024/03/17 06:41:15;;;;;;;9.13;3.10;;;;;;;;;;5040887;28;20028;-82
2024/03/17 06:43:43;;;;;;;11.32;2.50;;;;;;;;;;5069293;28;20040;-82
2024/03/17 06:46:09;;;;;;;9.50;2.70;;;;;;;;;;5030554;28;20036;-83
2024/03/17 06:48:35;;;;;;;7.05;2.60;;;;;;;;;;5021696;28;20052;-82
2024/03/17 06:51:02;;;;;;;6.30;2.90;;;;;;;;;;5024779;28;20032;-81
2024/03/17 06:53:29;;;;;;;5.55;2.35;;;;;;;;;;5051176;28;20025;-82
2024/03/17 06:55:56;;;;;;;7.22;2.63;;;;;;;;;;5037920;28;20052;-81
2024/03/17 06:58:26;;;;;;;9.98;2.60;;;;;;;;;;5020205;28;20033;-81
2024/03/17 07:01:00;;;;;;;7.45;2.80;;;;;;;;;;5022697;28;20124;-82
2024/03/17 07:03:27;;;;;;;5.82;2.75;;;;;;;;;;5026429;28;20034;-82
2024/03/17 07:05:53;;;;;;;8.10;2.67;;;;;;;;;;5045641;28;20033;-81
2024/03/17 07:08:22;;;;;;;10.40;3.40;;;;;;;;;;5063455;28;20041;-83
2024/03/17 07:10:54;;;;;;;8.00;2.50;;;;;;;;;;5037842;28;20052;-82
2024/03/17 07:13:20;;;;;;;5.85;2.60;;;;;;;;;;5022633;28;20072;-82
2024/03/17 07:15:48;;;;;;;10.75;3.83;;;;;;;;;;5035173;28;20033;-82
2024/03/17 07:18:15;;;;;;;7.00;2.63;;;;;;;;;;5025721;28;20042;-81
2024/03/17 07:20:40;;;;;;;10.82;3.10;;;;;;;;;;5027623;28;20030;-82
2024/03/17 07:23:06;;;;;;;5.97;2.38;;;;;;;;;;5049513;28;20409;-82
2024/03/17 07:25:33;;;;;;;7.03;2.45;;;;;;;;;;5025686;28;20038;-81
2024/03/17 07:27:59;;;;;;;9.50;2.70;;;;;;;;;;5037584;28;20101;-82
2024/03/17 07:30:24;;;;;;;10.48;2.60;;;;;;;;;;5032884;28;20087;-82
2024/03/17 07:32:51;;;;;;;7.60;2.58;;;;;;;;;;5030131;28;20120;-83
2024/03/17 07:35:17;;;;;;;8.02;2.78;;;;;;;;;;5031390;28;20064;-82
2024/03/17 07:37:42;;;;;;;7.40;2.88;;;;;;;;;;5043369;28;20039;-81
2024/03/17 07:40:11;;;;;;;12.45;2.63;;;;;;;;;;5046781;28;20072;-82
2024/03/17 07:42:36;;;;;;;12.25;2.85;;;;;;;;;;5042927;28;20039;-82
2024/03/17 07:45:02;;;;;;;9.85;3.00;;;;;;;;;;5026533;28;20041;-82
2024/03/17 07:47:35;;;;;;;6.68;2.67;;;;;;;;;;5038821;28;20052;-83
2024/03/17 07:50:09;;;;;;;10.82;2.65;;;;;;;;;;5018218;28;20063;-81
2024/03/17 07:52:35;;;;;;;13.73;2.83;;;;;;;;;;5047041;28;20052;-82
2024/03/17 07:55:02;;;;;;;10.70;2.60;;;;;;;;;;5065362;28;20028;-81
2024/03/17 07:57:28;;;;;;;7.13;2.90;;;;;;;;;;5046743;28;20064;-81
2024/03/17 07:59:53;;;;;;;12.07;2.30;;;;;;;;;;5078509;28;20040;-82
2024/03/17 08:02:19;;;;;;;7.35;2.30;;;;;;;;;;5014380;28;20068;-81
2024/03/17 08:04:45;;;;;;;10.95;2.00;;;;;;;;;;5022720;28;20112;-82
2024/03/17 08:07:10;;;;;;;15.05;4.15;;;;;;;;;;5019187;28;20087;-82
2024/03/17 08:09:38;;;;;;;5.93;1.98;;;;;;;;;;5021534;28;20034;-81
2024/03/17 08:12:04;;;;;;;14.48;2.58;;;;;;;;;;5014167;28;20472;-81
2024/03/17 08:14:33;;;;;;;11.73;2.72;;;;;;;;;;5046462;28;20082;-81
2024/03/17 08:16:58;;;;;;;10.23;2.58;;;;;;;;;;5011944;28;20244;-81
2024/03/17 08:19:24;;;;;;;15.52;2.38;;;;;;;;;;5040909;28;20038;-81
2024/03/17 08:21:50;;;;;;;11.50;2.90;;;;;;;;;;5020883;28;20034;-81
2024/03/17 08:24:15;;;;;;;12.18;2.30;;;;;;;;;;5037766;28;20030;-81
2024/03/17 08:26:41;;;;;;;12.68;2.67;;;;;;;;;;5010220;28;20128;-81
2024/03/17 08:29:06;;;;;;;10.90;2.50;;;;;;;;;;5013378;28;20044;-83
2024/03/17 08:31:33;;;;;;;14.88;2.35;;;;;;;;;;5020062;28;20124;-82
2024/03/17 08:34:02;;;;;;;10.43;2.40;;;;;;;;;;5044601;28;20084;-81
2024/03/17 08:36:29;;;;;;;9.00;2.45;;;;;;;;;;5048912;28;20117;-82
2024/03/17 08:38:55;;;;;;;8.95;2.60;;;;;;;;;;5028949;28;20107;-81
2024/03/17 08:41:21;;;;;;;12.48;3.03;;;;;;;;;;5032085;28;20057;-83
2024/03/17 08:43:47;;;;;;;10.68;2.83;;;;;;;;;;5025793;28;20037;-82
2024/03/17 08:46:14;;;;;;;10.23;3.55;;;;;;;;;;5046357;28;20029;-82
2024/03/17 08:48:40;;;;;;;14.57;2.83;;;;;;;;;;5035436;28;20037;-82
2024/03/17 08:51:07;;;;;;;15.57;3.95;;;;;;;;;;5053955;28;20059;-83
2024/03/17 08:53:34;;;;;;;8.38;2.53;;;;;;;;;;5036474;28;20024;-82
2024/03/17 08:56:00;;;;;;;10.27;2.88;;;;;;;;;;5037374;28;20033;-82
2024/03/17 08:58:26;;;;;;;10.38;2.92;;;;;;;;;;5047908;28;20045;-83
2024/03/17 09:00:52;;;;;;;11.20;3.00;;;;;;;;;;5048268;28;20091;-82
2024/03/17 09:03:18;;;;;;;13.07;2.30;;;;;;;;;;5028686;28;20030;-82
2024/03/17 09:05:44;;;;;;;15.50;3.60;;;;;;;;;;5027119;28;20051;-82
2024/03/17 09:08:15;;;;;;;10.85;2.72;;;;;;;;;;5023266;28;20033;-82
2024/03/17 09:10:43;;;;;;;20.05;2.80;;;;;;;;;;5032404;28;20034;-81
2024/03/17 09:13:13;;;;;;;9.70;2.50;;;;;;;;;;5028885;28;20063;-81
2024/03/17 09:15:38;;;;;;;11.07;2.58;;;;;;;;;;5037470;28;20041;-83
2024/03/17 09:18:04;;;;;;;8.93;2.28;;;;;;;;;;5042270;28;20033;-81
2024/03/17 09:20:31;;;;;;;8.15;2.83;;;;;;;;;;5032256;28;20033;-82
2024/03/17 09:22:57;;;;;;;11.05;2.67;;;;;;;;;;5042173;28;20119;-82
2024/03/17 09:25:27;;;;;;;14.18;2.63;;;;;;;;;;5046980;28;20025;-82
2024/03/17 09:27:54;;;;;;;9.85;2.60;;;;;;;;;;5036636;28;20033;-82
2024/03/17 09:30:24;;;;;;;6.90;2.55;;;;;;;;;;5044077;28;20109;-83
2024/03/17 09:32:54;;;;;;;10.05;2.53;;;;;;;;;;5013906;28;20034;-83
2024/03/17 09:35:22;;;;;;;;;;;;;;;;;;5043474;28;20032;-82
2024/03/17 09:37:49;;;;;;;9.07;2.03;;;;;;;;;;5019399;28;19908;-83
2024/03/17 09:40:15;;;;;;;11.18;2.25;;;;;;;;;;5035747;28;20029;-82
2024/03/17 09:42:42;;;;;;;9.07;2.42;;;;;;;;;;5029461;28;20040;-82
2024/03/17 09:45:08;;;;;;;8.38;2.28;;;;;;;;;;5039850;28;20056;-83
2024/03/17 09:47:36;;;;;;;8.73;2.47;;;;;;;;;;5036312;28;20025;-82
2024/03/17 09:50:02;;;;;;;8.55;2.15;;;;;;;;;;5029114;28;20040;-83
2024/03/17 09:52:27;;;;;;;5.80;2.00;;;;;;;;;;5020821;28;20049;-82
2024/03/17 09:54:55;;;;;;;11.02;2.72;;;;;;;;;;5048325;28;20071;-83
2024/03/17 09:57:22;;;;;;;10.82;2.70;;;;;;;;;;5022435;28;20048;-82
2024/03/17 09:59:52;;;;;;;10.02;2.10;;;;;;;;;;5050293;28;20133;-82
2024/03/17 10:02:18;;;;;;;7.07;2.45;;;;;;;;;;5050651;28;20033;-83
2024/03/17 10:04:44;;;;;;;9.70;2.25;;;;;;;;;;5050608;28;20044;-82
2024/03/17 10:07:09;;;;;;;10.20;2.70;;;;;;;;;;5047150;28;20045;-83
2024/03/17 10:09:36;;;;;;;7.85;2.80;;;;;;;;;;5027344;28;20040;-82
2024/03/17 10:12:02;;;;;;;9.18;2.13;;;;;;;;;;5027429;28;20036;-82
2024/03/17 10:14:28;;;;;;;10.80;2.10;;;;;;;;;;5039947;28;20064;-82
2024/03/17 10:16:53;;;;;;;11.88;3.25;;;;;;;;;;5024141;28;20435;-80
2024/03/17 10:19:27;;;;;;;10.52;2.88;;;;;;;;;;5029857;28;20025;-82
2024/03/17 10:22:01;;;;;;;10.00;2.33;;;;;;;;;;5043964;28;20029;-82
2024/03/17 10:24:28;;;;;;;6.05;2.03;;;;;;;;;;5038222;28;20067;-82
2024/03/17 10:26:55;;;;;;;5.20;2.30;;;;;;;;;;5047684;28;20056;-82
2024/03/17 10:29:37;;;;;;;6.43;2.00;;;;;;;;;;5025742;28;20037;-81
2024/03/17 10:32:06;;;;;;;10.25;2.60;;;;;;;;;;5019453;28;20029;-81
2024/03/17 10:34:37;;;;;;;9.95;2.47;;;;;;;;;;5017428;28;20029;-82
2024/03/17 10:37:07;;;;;;;6.65;2.20;;;;;;;;;;5019414;28;20037;-81
2024/03/17 10:39:34;;;;;;;6.63;3.30;;;;;;;;;;5047494;28;20028;-81
2024/03/17 10:42:04;;;;;;;10.57;2.45;;;;;;;;;;5024592;28;20049;-82
2024/03/17 10:44:34;;;;;;;10.35;2.42;;;;;;;;;;5042819;28;20076;-81
2024/03/17 10:47:01;;;;;;;8.57;2.80;;;;;;;;;;5015321;28;20026;-82
2024/03/17 10:49:31;;;;;;;9.02;2.35;;;;;;;;;;5026222;28;20036;-81
2024/03/17 10:52:04;;;;;;;8.30;2.78;;;;;;;;;;5045530;28;20071;-83
2024/03/17 10:54:30;;;;;;;9.40;2.65;;;;;;;;;;5045492;28;20071;-83
2024/03/17 10:57:26;;;;;;;8.07;2.90;;;;;;;;;;5041514;28;20030;-83
2024/03/17 10:59:52;;;;;;;11.65;2.80;;;;;;;;;;5041410;28;20048;-81
2024/03/17 11:02:25;;;;;;;5.78;2.58;;;;;;;;;;5016302;28;20033;-82
2024/03/17 11:05:02;;;;;;;7.88;2.55;;;;;;;;;;5026158;28;20092;-83
2024/03/17 11:07:31;;;;;;;6.80;2.60;;;;;;;;;;5057306;28;20032;-82
2024/03/17 11:09:57;;;;;;;8.90;3.40;;;;;;;;;;5014463;28;20048;-82
2024/03/17 11:12:45;;;;;;;8.00;3.03;;;;;;;;;;5035583;28;20040;-82
2024/03/17 11:15:26;;;;;;;9.90;2.92;;;;;;;;;;5043925;28;20120;-81
2024/03/17 11:17:53;;;;;;;8.27;3.25;;;;;;;;;;5047825;28;20364;-81
2024/03/17 11:20:24;;;;;;;10.48;2.92;;;;;;;;;;5025250;28;20547;-83
2024/03/17 11:22:52;;;;;;;6.72;2.63;;;;;;;;;;5035026;28;20033;-83
2024/03/17 11:25:19;;;;;;;;;;;;;;;;;;5032858;28;20033;-82
2024/03/17 11:27:44;;;;;;;9.02;2.88;;;;;;;;;;5021204;28;19916;-83
2024/03/17 11:30:29;;;;;;;8.65;3.10;;;;;;;;;;5038158;28;20033;-82
2024/03/17 11:32:55;;;;;;;8.30;2.88;;;;;;;;;;5022218;28;20037;-81
2024/03/17 11:35:23;;;;;;;9.23;2.90;;;;;;;;;;5020768;28;20037;-82
2024/03/17 11:37:53;;;;;;;8.10;2.75;;;;;;;;;;5055863;28;20104;-83
2024/03/17 11:40:25;;;;;;;7.67;3.30;;;;;;;;;;5076429;28;20055;-83
2024/03/17 11:45:40;;;;;;;8.98;3.38;;;;;;;;;;5037674;23;20046;-83
2024/03/17 11:48:12;;;;;;;8.95;3.33;;;;;;;;;;5001124;28;20073;-82
2024/03/17 11:50:39;;;;;;;8.85;4.00;;;;;;;;;;4985818;28;20014;-82
2024/03/17 11:53:08;;;;;;;6.13;3.40;;;;;;;;;;4994450;28;20045;-83
2024/03/17 11:55:34;;;;;;;8.63;3.08;;;;;;;;;;5003103;28;20032;-82
2024/03/17 11:58:00;;;;;;;8.80;3.60;;;;;;;;;;4987479;28;20038;-82
2024/03/17 12:00:26;;;;;;;6.85;3.03;;;;;;;;;;5003653;28;20046;-83
2024/03/17 12:02:52;;;;;;;8.38;2.55;;;;;;;;;;5003178;28;20028;-82
2024/03/17 12:05:18;;;;;;;8.13;3.40;;;;;;;;;;4992855;28;20042;-82
2024/03/17 12:07:44;;;;;;;9.82;3.33;;;;;;;;;;4973273;28;20022;-82
2024/03/17 12:10:16;;;;;;;8.93;3.60;;;;;;;;;;5005620;28;20034;-84
2024/03/17 12:12:47;;;;;;;8.45;2.83;;;;;;;;;;4988013;28;20030;-83
2024/03/17 12:15:33;;;;;;;8.88;3.47;;;;;;;;;;4989001;28;20270;-82
2024/03/17 12:18:03;;;;;;;7.22;3.83;;;;;;;;;;5003384;28;20044;-83
2024/03/17 12:20:31;;;;;;;9.93;4.15;;;;;;;;;;5004209;28;20026;-83
2024/03/17 12:22:58;;;;;;;;;;;;;;;;;;4994669;28;20046;-83
2024/03/17 12:25:29;;;;;;;8.18;3.30;;;;;;;;;;5020200;28;19913;-82
2024/03/17 12:27:55;;;;;;;6.63;3.35;;;;;;;;;;5015239;28;20045;-83
2024/03/17 12:30:21;;;;;;;7.28;4.00;;;;;;;;;;5009970;28;20042;-83
2024/03/17 12:32:51;;;;;;;10.03;3.40;;;;;;;;;;4996475;28;20053;-82
2024/03/17 12:35:19;;;;;;;6.65;3.03;;;;;;;;;;4976538;28;20030;-82
2024/03/17 12:37:46;;;;;;;;;;;;;;;;;;4999196;28;20030;-84
2024/03/17 12:40:23;;;;;;;10.50;3.28;;;;;;;;;;4984890;28;19996;-83
2024/03/17 12:42:52;;;;;;;9.60;3.10;;;;;;;;;;4974748;28;20030;-83
2024/03/17 12:45:21;;;;;;;5.75;3.00;;;;;;;;;;4989620;28;20113;-83
2024/03/17 12:47:48;;;;;;;6.30;2.80;;;;;;;;;;4982280;28;20033;-83
2024/03/17 12:50:15;;;;;;;7.90;2.97;;;;;;;;;;5009680;28;20033;-82
2024/03/17 12:52:51;;;;;;;7.03;2.72;;;;;;;;;;4978283;28;20405;-82
2024/03/17 13:01:05;;;;;;;5.97;2.65;;;;;;;;;;4999284;28;20022;-84
2024/03/17 13:03:33;;;;;;;5.78;2.20;;;;;;;;;;4971931;28;20031;-84
2024/03/17 13:05:59;;;;;;;;;;;;;;;;;;4974867;28;20022;-84
2024/03/17 13:08:25;;;;;;;10.45;2.33;;;;;;;;;;4968361;28;20278;-84
2024/03/17 13:10:50;;;;;;;8.10;2.20;;;;;;;;;;4977015;28;20045;-84
2024/03/17 13:13:16;;;;;;;11.18;3.83;;;;;;;;;;4983574;28;20033;-84
2024/03/17 13:15:45;;;;;;;7.65;2.40;;;;;;;;;;4988390;28;20105;-84
2024/03/17 13:18:19;;;;;;;8.18;2.60;;;;;;;;;;4966328;28;20065;-84
2024/03/17 13:20:45;;;;;;;9.30;3.10;;;;;;;;;;4988231;28;20026;-83
2024/03/17 13:23:12;;;;;;;7.13;2.42;;;;;;;;;;5008749;28;20057;-84
2024/03/17 13:25:38;;;;;;;7.28;2.38;;;;;;;;;;4976620;28;20036;-84
2024/03/17 13:28:06;;;;;;;6.70;2.80;;;;;;;;;;4983734;28;20026;-83
2024/03/17 13:30:33;;;;;;;12.05;2.85;;;;;;;;;;4976659;28;20037;-83
2024/03/17 13:33:00;;;;;;;11.18;2.60;;;;;;;;;;4992899;28;20038;-85
2024/03/17 13:38:10;;;;;;;4.72;2.03;;;;;;;;;;5004283;28;20052;-82
2024/03/17 13:40:46;;;;;;;9.98;3.70;;;;;;;;;;4963315;28;20061;-83
2024/03/17 13:43:20;;;;;;;6.82;1.80;;;;;;;;;;4962357;28;20037;-84
2024/03/17 13:45:49;;;;;;;6.70;2.20;;;;;;;;;;4972267;28;20409;-83
2024/03/17 13:48:20;;;;;;;10.15;3.42;;;;;;;;;;4965005;28;20034;-83
2024/03/17 13:50:52;;;;;;;5.57;2.05;;;;;;;;;;4967972;28;20035;-83
2024/03/17 13:54:00;;;;;;;6.55;2.00;;;;;;;;;;4970065;28;20117;-83
2024/03/17 13:56:29;;;;;;;6.80;2.38;;;;;;;;;;4950161;28;20035;-84
2024/03/17 13:59:22;;;;;;;9.23;2.40;;;;;;;;;;4971233;28;20031;-83
2024/03/17 14:02:13;;;;;;;6.85;2.75;;;;;;;;;;4933499;28;20046;-83
2024/03/17 14:05:05;;;;;;;4.60;1.90;;;;;;;;;;4944668;28;20544;-83
2024/03/17 14:07:39;;;;;;;7.43;1.90;;;;;;;;;;4952547;28;20414;-83
2024/03/17 14:10:09;;;;;;;6.90;2.20;;;;;;;;;;4974750;28;20398;-83
2024/03/17 14:13:00;;;;;;;9.25;4.03;;;;;;;;;;4973142;28;20027;-83
2024/03/17 14:15:28;;;;;;;8.18;2.30;;;;;;;;;;4975018;28;20466;-84
2024/03/17 14:18:08;;;;;;;7.07;2.50;;;;;;;;;;4946314;28;20046;-83
2024/03/17 14:20:40;;;;;;;6.80;2.13;;;;;;;;;;4924160;28;20037;-83
2024/03/17 14:23:17;;;;;;;9.40;2.15;;;;;;;;;;4948515;28;20039;-83
2024/03/17 14:25:48;;;;;;;9.48;2.83;;;;;;;;;;4935531;28;20038;-83
2024/03/17 14:28:36;;;;;;;8.02;2.40;;;;;;;;;;4980943;28;20027;-84
2024/03/17 14:31:06;;;;;;;8.07;2.70;;;;;;;;;;4940433;28;20126;-84
2024/03/17 14:33:38;;;;;;;7.68;2.33;;;;;;;;;;4928167;29;20036;-83
2024/03/17 14:36:23;;;;;;;;;;;;;;;;;;;;;
2024/03/17 14:39:18;;;;;;;6.85;2.42;;;;;;;;;;4940387;28;20047;-82
2024/03/17 14:42:11;;;;;;;7.32;2.13;;;;;;;;;;4978100;28;20027;-82
2024/03/17 14:44:38;;;;;;;8.35;2.20;;;;;;;;;;4956195;28;20062;-84
2024/03/17 14:47:10;;;;;;;9.32;2.70;;;;;;;;;;4970339;28;20031;-83
2024/03/17 14:49:51;;;;;;;;;;;;;;;;;;;;;
2024/03/17 14:52:19;;;;;;;8.90;2.42;;;;;;;;;;4951270;29;20031;-83
2024/03/17 14:54:59;;;;;;;10.10;2.53;;;;;;;;;;4940063;28;20031;-83
2024/03/17 14:58:02;;;;;;;6.63;2.50;;;;;;;;;;4983344;28;20372;-82
2024/03/17 15:00:52;;;;;;;6.93;2.58;;;;;;;;;;4955137;28;20129;-83
2024/03/17 15:03:28;;;;;;;7.35;2.28;;;;;;;;;;4954336;28;20062;-87
2024/03/17 15:06:10;;;;;;;;;;;;;;;;;;;;;
2024/03/17 15:08:38;;;;;;;8.02;2.58;;;;;;;;;;4986325;28;20023;-83